»·PEaware :: N422CU L70-F70

N422CU :: L70-F70

FLIGHT INFORMATION

Flight Status: Arrived
Operator: Privately registered:
United States
More flights under this callsign
Pilot: Christian U. (16550)
Aircraft: DIAMOND DA-42 TWINSTAR
(DA42)
More flights by this aircraft type
Origin: L70 Agua Dulce
United States
Destination: F70 French Valley
United States
More flights between these airports :: More routes between these airports
Route:
File this flight plan on PilotEdge
Remarks:
Altitude:
(Current/Filed)
7,500ft
Speed:
(Current/Filed)
140kts
Departed: 08-Sep-17 09:59 AM
Arrived: 08-Sep-17 10:48 AM
Distance/Time
Traveled:
81nm/0:49
Distance/Time
To Go:
Arrived

Flight Plot

Page will automatically refresh every two minutes.

Flight plan parsing failed; only flown route is shown


Map Options




Map Legend


Flown Route
Filed Route
Departure Airport
Arrival Airport
Navaid (VOR, NDB)
Fix

Horizontal Profiles

Position Reports

Time Latitude Longitude Heading Altitude Ground
Speed
08-Sep-17 09:57 34.503426 -118.314447 139 2663ft 0kts
08-Sep-17 09:58 34.503426 -118.314447 139 2663ft 0kts
08-Sep-17 09:59 34.502908 -118.314952 234 2663ft 11kts
08-Sep-17 10:00 34.500833 -118.318284 233 2663ft 12kts
08-Sep-17 10:01 34.500321 -118.319066 201 2663ft 0kts
08-Sep-17 10:02 34.500199 -118.319125 193 2663ft 2kts
08-Sep-17 10:03 34.507216 -118.307958 50 3033ft 85kts
08-Sep-17 10:04 34.524803 -118.308285 278 3904ft 96kts
08-Sep-17 10:05 34.509773 -118.336777 234 4877ft 110kts
08-Sep-17 10:06 34.492099 -118.371579 234 6024ft 130kts
08-Sep-17 10:07 34.474134 -118.410235 234 7139ft 132kts
08-Sep-17 10:08 34.447188 -118.425556 174 7491ft 124kts
08-Sep-17 10:09 34.411788 -118.422138 172 7486ft 128kts
08-Sep-17 10:10 34.376345 -118.418032 172 7483ft 127kts
08-Sep-17 10:11 34.341127 -118.413876 172 7483ft 127kts
08-Sep-17 10:12 34.307636 -118.405310 128 7481ft 129kts
08-Sep-17 10:13 34.289316 -118.367323 124 7482ft 130kts
08-Sep-17 10:14 34.272024 -118.328677 122 7482ft 131kts
08-Sep-17 10:15 34.255203 -118.289771 120 7485ft 130kts
08-Sep-17 10:16 34.238758 -118.250845 120 7489ft 129kts
08-Sep-17 10:17 34.221800 -118.212794 120 7493ft 128kts
08-Sep-17 10:18 34.204290 -118.175457 120 7497ft 128kts
08-Sep-17 10:19 34.186118 -118.138526 120 7501ft 128kts
08-Sep-17 10:20 34.167336 -118.101987 120 7504ft 128kts
08-Sep-17 10:21 34.151852 -118.061557 104 7516ft 147kts
08-Sep-17 10:22 34.143597 -118.011382 104 7525ft 155kts
08-Sep-17 10:23 34.134332 -117.960341 106 7528ft 155kts
08-Sep-17 10:24 34.123899 -117.910344 110 7532ft 153kts
08-Sep-17 10:25 34.113151 -117.866698 113 7533ft 150kts
08-Sep-17 10:26 34.100154 -117.819463 123 7533ft 146kts
08-Sep-17 10:27 34.080642 -117.776265 124 7527ft 147kts
08-Sep-17 10:28 34.058923 -117.734573 131 7519ft 147kts
08-Sep-17 10:29 34.034770 -117.694420 131 7512ft 149kts
08-Sep-17 10:30 34.010140 -117.654127 131 7507ft 150kts
08-Sep-17 10:31 33.985056 -117.613877 131 7505ft 152kts
08-Sep-17 10:32 33.961625 -117.571088 125 7506ft 154kts
08-Sep-17 10:33 33.938933 -117.527186 125 7506ft 154kts
08-Sep-17 10:34 33.914945 -117.484829 130 7505ft 153kts
08-Sep-17 10:35 33.881685 -117.458317 166 7506ft 145kts
08-Sep-17 10:36 33.843424 -117.442418 166 7508ft 145kts
08-Sep-17 10:37 33.805290 -117.426546 166 7511ft 145kts
08-Sep-17 10:38 33.766957 -117.410583 166 7515ft 145kts
08-Sep-17 10:39 33.729475 -117.394998 166 7143ft 143kts
08-Sep-17 10:40 33.699752 -117.362584 131 6447ft 148kts
08-Sep-17 10:41 33.674025 -117.324125 130 5750ft 147kts
08-Sep-17 10:42 33.648702 -117.286175 116 5057ft 145kts
08-Sep-17 10:43 33.630473 -117.243200 116 4364ft 143kts
08-Sep-17 10:44 33.612349 -117.201326 116 3673ft 141kts
08-Sep-17 10:45 33.594476 -117.159943 116 3017ft 137kts
08-Sep-17 10:46 33.580133 -117.120427 102 2996ft 125kts
08-Sep-17 10:47 33.562378 -117.090178 191 2757ft 127kts
08-Sep-17 10:48 33.563785 -117.119013 338 2378ft 111kts
08-Sep-17 10:49 33.593891 -117.108569 24 2336ft 98kts
08-Sep-17 10:50 33.602400 -117.123799 199 1957ft 77kts
08-Sep-17 10:51 33.581227 -117.126599 193 1361ft 69kts
08-Sep-17 10:52 33.574601 -117.128973 237 1353ft 0kts
08-Sep-17 10:53 33.574433 -117.129227 205 1353ft 7kts
08-Sep-17 10:54 33.573906 -117.130425 12 1353ft 0kts

Navigation Log

Ident Type
Flight plan parsing failed, navigation log unavailable